Preview of NWS' New Version of Forecast
This preview is not operational and should not be used for support decisions.

Terminal Aerodrome Forecast (TAF)

Issued by National Weather Service (NWS)

                            
000
FTUS42 KCAE 170852 AAA
TAFOGB
TAF AMD
KOGB 170852Z 1709/1806 15003KT P6SM SCT100
     FM171000 VRB02KT 5SM BR OVC006
      TEMPO 1711/1712 1SM BR OVC002
     FM171500 VRB05KT P6SM SCT050=